Time;durP1;ratioP1;P1;durP2;ratioP2;P2;SDS_P1;SDS_P2;PMS_P1;PMS_P2;Temp;Humidity;BMP_temperature;BMP_pressure;BME280_temperature;BME280_humidity;BME280_pressure;Samples;Min_cycle;Max_cycle;Signal;HPM_P1;HPM_P2
2023/10/11 00:01:09;;;;;;;18.60;7.88;;;;;;;25.06;55.37;101469.78;5107463;28;20044;-66
2023/10/11 00:03:35;;;;;;;13.68;7.07;;;;;;;24.64;55.61;101472.25;5099049;28;20059;-66
2023/10/11 00:06:04;;;;;;;19.67;7.65;;;;;;;24.72;56.83;101464.66;5108855;28;20492;-66
2023/10/11 00:08:39;;;;;;;16.27;7.57;;;;;;;24.01;59.28;101447.34;5109999;28;20026;-67
2023/10/11 00:11:07;;;;;;;16.10;7.18;;;;;;;22.96;63.55;101468.16;5107902;28;20031;-66
2023/10/11 00:13:33;;;;;;;15.35;6.32;;;;;;;24.24;57.87;101457.69;5093390;28;20415;-66
2023/10/11 00:16:08;;;;;;;15.25;7.03;;;;;;;23.76;60.57;101461.22;5093552;28;20496;-67
2023/10/11 00:18:39;;;;;;;20.00;7.88;;;;;;;23.39;62.17;101460.56;5092299;28;20472;-66
2023/10/11 00:21:11;;;;;;;16.52;7.30;;;;;;;23.01;62.70;101455.44;5091899;28;20020;-67
2023/10/11 00:23:41;;;;;;;18.83;7.85;;;;;;;23.49;61.07;101453.81;5099873;28;20038;-67
2023/10/11 00:26:06;;;;;;;19.65;8.43;;;;;;;23.83;60.59;101459.06;5093492;28;20028;-67
2023/10/11 00:28:33;;;;;;;14.93;6.97;;;;;;;23.94;59.47;101462.00;5093544;28;20106;-67
2023/10/11 00:31:02;;;;;;;25.40;8.10;;;;;;;24.32;58.91;101460.78;5092298;28;20145;-67
2023/10/11 00:33:29;;;;;;;19.67;8.05;;;;;;;24.89;56.52;101450.28;5096159;28;20525;-67
2023/10/11 00:35:55;;;;;;;20.48;7.05;;;;;;;24.31;56.95;101461.72;5104534;28;20020;-67
2023/10/11 00:38:27;;;;;;;26.95;7.72;;;;;;;24.58;57.11;101458.38;5092872;28;20158;-67
2023/10/11 00:41:01;;;;;;;15.50;6.80;;;;;;;24.44;57.26;101460.06;5093689;28;20484;-67
2023/10/11 00:43:38;;;;;;;22.45;6.90;;;;;;;23.74;58.09;101465.78;5108980;28;20027;-67
2023/10/11 00:46:08;;;;;;;13.65;6.88;;;;;;;24.48;57.61;101450.91;5104005;28;20102;-67
2023/10/11 00:48:46;;;;;;;16.70;7.20;;;;;;;24.44;57.65;101451.16;5093885;28;20071;-67
2023/10/11 00:51:16;;;;;;;16.83;6.97;;;;;;;22.65;63.20;101443.94;5091474;28;20031;-66
2023/10/11 00:53:41;;;;;;;15.48;6.40;;;;;;;23.07;62.14;101444.47;5100353;28;20240;-67
2023/10/11 00:56:07;;;;;;;19.95;7.88;;;;;;;24.66;55.67;101440.09;5101480;28;20430;-66
2023/10/11 00:58:33;;;;;;;22.42;7.25;;;;;;;24.11;58.60;101437.03;5093160;28;20020;-67
2023/10/11 01:01:02;;;;;;;21.60;7.85;;;;;;;24.27;57.34;101425.47;5117000;27;20502;-67
2023/10/11 01:03:32;;;;;;;21.08;6.38;;;;;;;23.87;59.41;101431.25;5131408;27;20464;-67
2023/10/11 01:05:59;;;;;;;19.40;7.85;;;;;;;23.33;60.67;101428.91;5119644;27;20027;-68
2023/10/11 01:08:24;;;;;;;15.80;6.63;;;;;;;23.22;62.92;101437.50;5116203;27;20452;-67
2023/10/11 01:10:53;;;;;;;27.88;7.13;;;;;;;23.82;60.34;101426.19;5132050;27;20098;-67
2023/10/11 01:13:19;;;;;;;18.48;7.72;;;;;;;23.75;60.37;101435.47;5114364;27;20394;-67
2023/10/11 01:15:44;;;;;;;17.60;6.93;;;;;;;24.62;56.71;101430.53;5132818;27;20025;-68
2023/10/11 01:18:12;;;;;;;21.48;7.95;;;;;;;23.51;60.07;101430.56;5113776;27;20027;-67
2023/10/11 01:20:40;;;;;;;19.15;7.25;;;;;;;23.27;61.30;101426.56;5095450;28;20061;-67
2023/10/11 01:23:06;;;;;;;18.45;7.90;;;;;;;23.50;60.10;101431.50;5111764;27;20055;-67
2023/10/11 01:25:32;;;;;;;24.73;7.65;;;;;;;22.97;63.16;101432.56;5109632;27;20111;-67
2023/10/11 01:27:57;;;;;;;20.08;7.40;;;;;;;23.36;61.08;101424.25;5132792;27;20027;-67
2023/10/11 01:30:26;;;;;;;16.85;7.75;;;;;;;23.46;62.29;101416.59;5115396;27;20030;-67
2023/10/11 01:32:54;;;;;;;20.95;8.30;;;;;;;23.17;62.68;101413.72;5103206;28;20024;-67
2023/10/11 01:35:20;;;;;;;23.52;8.38;;;;;;;24.07;59.49;101419.47;5116695;27;20016;-67
2023/10/11 01:37:49;;;;;;;20.45;8.52;;;;;;;24.46;56.10;101415.41;5115277;27;20068;-67
2023/10/11 01:40:20;;;;;;;15.63;7.40;;;;;;;22.93;62.15;101415.00;5114522;27;20014;-67
2023/10/11 01:42:52;;;;;;;16.98;8.70;;;;;;;23.19;61.24;101408.31;5096014;28;20027;-67
2023/10/11 01:45:19;;;;;;;17.33;8.32;;;;;;;23.35;61.06;101403.00;5114737;27;20041;-67
2023/10/11 01:47:48;;;;;;;20.67;9.10;;;;;;;24.23;57.47;101403.41;5133881;27;20027;-67
2023/10/11 01:50:15;;;;;;;20.23;7.93;;;;;;;23.59;61.01;101399.91;5103366;27;20031;-67
2023/10/11 01:52:41;;;;;;;20.10;8.07;;;;;;;22.60;64.32;101397.16;5131439;27;20031;-67
2023/10/11 01:55:10;;;;;;;19.00;8.05;;;;;;;23.25;61.63;101391.97;5133023;27;20102;-67
2023/10/11 01:57:39;;;;;;;19.17;7.85;;;;;;;22.87;62.46;101376.22;5096161;28;20073;-67
2023/10/11 02:00:13;;;;;;;20.58;8.75;;;;;;;23.44;60.60;101382.94;5093806;27;20058;-66
2023/10/11 02:02:44;;;;;;;23.35;8.43;;;;;;;23.11;62.36;101370.50;5112625;28;20114;-67
2023/10/11 02:05:11;;;;;;;22.33;8.43;;;;;;;22.70;63.29;101377.13;5093827;28;20035;-67
2023/10/11 02:07:39;;;;;;;21.13;8.45;;;;;;;22.85;62.88;101360.31;5127408;27;20031;-67
2023/10/11 02:10:12;;;;;;;23.10;9.15;;;;;;;22.28;65.41;101365.03;5105880;28;20035;-67
2023/10/11 02:12:38;;;;;;;;;;;;;;;23.97;57.55;101355.06;5106728;27;20035;-68
2023/10/11 02:15:07;;;;;;;23.50;8.30;;;;;;;22.79;62.56;101360.66;5111269;28;19916;-67
2023/10/11 02:17:37;;;;;;;20.80;8.77;;;;;;;22.87;61.81;101350.44;5105414;27;20031;-67
2023/10/11 02:20:07;;;;;;;21.60;8.05;;;;;;;22.12;64.48;101360.50;5108341;27;20063;-67
2023/10/11 02:22:33;;;;;;;25.60;9.23;;;;;;;23.15;63.00;101366.75;5093114;28;20039;-67
2023/10/11 02:24:59;;;;;;;21.10;8.13;;;;;;;22.84;61.99;101371.91;5109527;28;20031;-67
2023/10/11 02:27:25;;;;;;;24.25;8.40;;;;;;;23.74;58.43;101375.06;5111001;27;20058;-67
2023/10/11 02:29:51;;;;;;;21.85;9.20;;;;;;;22.67;61.11;101378.13;5119953;27;20027;-67
2023/10/11 02:32:16;;;;;;;18.58;8.50;;;;;;;23.26;59.53;101369.72;5113455;27;20546;-66
2023/10/11 02:34:43;;;;;;;24.95;9.18;;;;;;;22.64;61.99;101372.09;5113191;27;20037;-67
2023/10/11 02:37:11;;;;;;;21.95;7.72;;;;;;;22.65;62.28;101374.69;5111089;27;20040;-67
2023/10/11 02:39:43;;;;;;;19.70;8.82;;;;;;;22.62;62.87;101374.84;5132803;27;20035;-67
2023/10/11 02:42:08;;;;;;;16.17;7.60;;;;;;;22.36;62.26;101369.06;5113077;27;20122;-67
2023/10/11 02:44:39;;;;;;;20.92;7.30;;;;;;;23.62;58.82;101370.41;5132171;27;20026;-67
2023/10/11 02:47:08;;;;;;;27.25;8.02;;;;;;;23.57;57.64;101367.13;5111033;27;20054;-67
2023/10/11 02:49:34;;;;;;;21.88;8.40;;;;;;;23.22;58.38;101370.81;5111579;27;20453;-67
2023/10/11 02:52:08;;;;;;;17.00;6.80;;;;;;;22.47;62.76;101365.84;5126250;27;20094;-67
2023/10/11 02:54:38;;;;;;;16.40;6.85;;;;;;;23.14;60.71;101365.06;5111900;28;20027;-66
2023/10/11 02:57:06;;;;;;;19.42;7.68;;;;;;;22.58;60.75;101361.78;5092621;27;20346;-67
2023/10/11 02:59:33;;;;;;;20.20;7.38;;;;;;;23.46;57.90;101354.41;5092967;28;20035;-66
2023/10/11 03:01:59;;;;;;;21.80;7.45;;;;;;;22.99;58.45;101361.38;5093020;28;20439;-67
2023/10/11 03:04:39;;;;;;;16.73;7.68;;;;;;;22.81;60.73;101355.25;5092891;28;20027;-67
2023/10/11 03:07:05;;;;;;;14.05;6.97;;;;;;;22.97;60.50;101352.59;5109855;28;20026;-67
2023/10/11 03:09:33;;;;;;;20.65;7.65;;;;;;;22.78;60.29;101350.03;5109135;27;20023;-67
2023/10/11 03:12:06;;;;;;;12.73;6.93;;;;;;;22.97;59.59;101348.13;5112266;27;20023;-67
2023/10/11 03:14:42;;;;;;;19.60;8.57;;;;;;;22.58;60.29;101351.13;5112883;27;20483;-67
2023/10/11 03:17:13;;;;;;;18.10;8.07;;;;;;;23.78;56.29;101365.94;5111448;27;20129;-67
2023/10/11 03:19:42;;;;;;;13.15;6.70;;;;;;;24.13;55.10;101355.03;5109997;27;20371;-67
2023/10/11 03:22:09;;;;;;;14.93;5.90;;;;;;;24.26;53.74;101347.13;5113098;27;20061;-67
2023/10/11 03:24:39;;;;;;;18.38;7.50;;;;;;;24.10;54.41;101360.53;5131000;27;20490;-67
2023/10/11 03:27:05;;;;;;;15.90;7.00;;;;;;;24.06;55.09;101359.00;5126079;27;20058;-67
2023/10/11 03:29:31;;;;;;;12.30;6.57;;;;;;;23.24;57.36;101360.06;5104413;27;20495;-67
2023/10/11 03:31:57;;;;;;;19.48;7.57;;;;;;;23.75;56.12;101352.72;5112567;27;20022;-67
2023/10/11 03:34:22;;;;;;;16.23;7.53;;;;;;;23.02;58.24;101346.06;5113137;27;20470;-67
2023/10/11 03:36:52;;;;;;;20.65;7.30;;;;;;;23.08;59.57;101350.22;5113745;27;20034;-67
2023/10/11 03:42:14;;;;;;;19.50;8.13;;;;;;;22.32;61.84;101339.97;5109989;27;20572;-67
2023/10/11 03:44:40;;;;;;;20.08;7.20;;;;;;;23.52;57.46;101330.91;5092480;28;20019;-67
2023/10/11 03:47:09;;;;;;;16.95;7.50;;;;;;;23.20;58.63;101328.25;5095364;27;20084;-67
2023/10/11 03:52:22;;;;;;;19.08;6.65;;;;;;;23.26;58.45;101331.50;5110386;28;20091;-67
2023/10/11 03:54:50;;;;;;;18.30;7.53;;;;;;;23.04;59.24;101338.00;5110592;28;20027;-67
2023/10/11 03:57:18;;;;;;;16.63;7.32;;;;;;;22.52;61.32;101336.31;5091873;28;20027;-67
2023/10/11 03:59:48;;;;;;;17.88;8.32;;;;;;;22.14;61.92;101325.81;5101887;28;20031;-67
2023/10/11 04:02:16;;;;;;;20.50;7.53;;;;;;;21.83;65.16;101338.88;5129316;28;20019;-66
2023/10/11 04:04:42;;;;;;;18.80;7.70;;;;;;;22.70;60.22;101323.84;5131373;28;20019;-67
2023/10/11 04:07:12;;;;;;;21.90;9.35;;;;;;;22.64;60.68;101325.03;5129126;28;20031;-66
2023/10/11 04:09:39;;;;;;;19.15;7.68;;;;;;;23.17;59.19;101328.41;5129492;28;20034;-67
2023/10/11 04:12:05;;;;;;;20.83;7.53;;;;;;;23.13;59.14;101326.84;5130679;28;20046;-67
2023/10/11 04:14:47;;;;;;;15.00;7.13;;;;;;;22.25;62.95;101343.91;5108449;28;20026;-67
2023/10/11 04:19:47;;;;;;;16.63;8.35;;;;;;;23.38;59.63;101329.03;5118198;28;20027;-67
2023/10/11 04:22:16;;;;;;;19.25;8.25;;;;;;;23.44;58.73;101330.47;5111379;28;20019;-67
2023/10/11 04:24:43;;;;;;;23.20;8.80;;;;;;;23.23;59.79;101326.34;5106633;28;20020;-67
2023/10/11 04:29:52;;;;;;;17.25;9.20;;;;;;;23.85;56.37;101329.03;5129481;28;20043;-67
2023/10/11 04:35:21;;;;;;;20.95;8.45;;;;;;;24.78;54.70;101319.06;5114903;28;20119;-68
2023/10/11 04:38:01;;;;;;;35.30;9.70;;;;;;;23.43;59.38;101339.44;5112604;28;20035;-68
2023/10/11 04:43:29;;;;;;;27.35;9.40;;;;;;;24.84;53.74;101334.75;5129893;28;20118;-68
2023/10/11 04:45:59;;;;;;;19.58;8.05;;;;;;;23.99;56.63;101347.81;5117677;28;20056;-69
2023/10/11 04:48:30;;;;;;;22.48;8.88;;;;;;;24.35;55.67;101343.06;5091162;28;20483;-67
2023/10/11 04:51:04;;;;;;;19.73;8.57;;;;;;;23.49;59.31;101349.75;5105772;28;20023;-68
2023/10/11 04:53:34;;;;;;;20.27;8.18;;;;;;;24.16;56.34;101349.50;5129291;28;20027;-68
2023/10/11 04:56:09;;;;;;;15.50;7.78;;;;;;;23.87;56.63;101344.03;5103517;28;20532;-67
2023/10/11 05:01:08;;;;;;;20.98;8.75;;;;;;;23.98;56.78;101334.56;5131304;27;20545;-68
2023/10/11 05:03:37;;;;;;;19.27;8.27;;;;;;;24.06;56.36;101326.97;5095177;28;20084;-68
2023/10/11 05:06:12;;;;;;;20.70;8.05;;;;;;;23.13;60.86;101342.84;5107717;27;20031;-68
2023/10/11 05:08:51;;;;;;;23.42;8.77;;;;;;;22.63;61.59;101343.75;5115912;27;20386;-68
2023/10/11 05:14:28;;;;;;;17.88;8.73;;;;;;;23.77;59.12;101348.19;5103915;28;20393;-68
2023/10/11 05:16:59;;;;;;;23.23;9.05;;;;;;;23.28;59.44;101324.28;5093662;28;20471;-68
2023/10/11 05:19:28;;;;;;;16.95;7.97;;;;;;;23.54;60.56;101321.00;5129021;27;20065;-68
2023/10/11 05:21:54;;;;;;;24.58;9.75;;;;;;;23.51;60.83;101337.19;5114204;27;20081;-68
2023/10/11 05:24:44;;;;;;;24.40;9.15;;;;;;;24.15;57.57;101342.44;5110799;27;20482;-68
2023/10/11 05:32:41;;;;;;;23.63;8.27;;;;;;;23.16;60.97;101315.16;5131116;27;20027;-68
2023/10/11 05:51:19;;;;;;;15.63;8.25;;;;;;;24.44;56.87;101315.81;5114199;27;20452;-68
2023/10/11 05:53:50;;;;;;;22.38;9.05;;;;;;;23.09;60.49;101314.59;5102083;27;20039;-67
2023/10/11 05:56:22;;;;;;;23.15;8.93;;;;;;;23.42;60.82;101311.03;5114024;27;20042;-67
2023/10/11 05:58:52;;;;;;;19.85;8.88;;;;;;;23.18;61.49;101319.47;5114382;27;20023;-67
2023/10/11 06:01:22;;;;;;;21.83;8.68;;;;;;;24.10;58.81;101323.16;5114479;27;20410;-67
2023/10/11 06:03:49;;;;;;;21.63;8.27;;;;;;;23.64;59.26;101331.16;5096533;27;20023;-68
2023/10/11 06:06:26;;;;;;;21.13;8.20;;;;;;;23.94;59.40;101338.38;5097987;28;20035;-68
2023/10/11 06:08:52;;;;;;;23.48;9.20;;;;;;;23.43;60.17;101346.56;5101455;28;20140;-68
2023/10/11 06:11:18;;;;;;;22.83;8.55;;;;;;;23.49;60.06;101341.75;5094418;28;20031;-68
2023/10/11 06:13:44;;;;;;;23.40;9.15;;;;;;;24.27;57.08;101342.66;5106335;27;20269;-68
2023/10/11 06:16:13;;;;;;;23.85;9.10;;;;;;;23.30;62.79;101343.72;5099717;28;20035;-68
2023/10/11 06:18:39;;;;;;;21.45;7.57;;;;;;;24.29;57.96;101348.75;5112316;28;20042;-68
2023/10/11 06:21:18;;;;;;;22.70;8.13;;;;;;;23.43;59.95;101358.09;5110103;27;20122;-68
2023/10/11 06:23:44;;;;;;;23.55;8.68;;;;;;;24.42;58.76;101352.41;5122585;27;20027;-67
2023/10/11 06:29:07;;;;;;;25.85;8.20;;;;;;;23.46;62.03;101357.91;5077137;28;20063;-68
2023/10/11 06:31:39;;;;;;;19.02;7.85;;;;;;;23.82;61.78;101363.91;5093444;28;20108;-69
2023/10/11 06:34:26;;;;;;;26.75;9.15;;;;;;;22.91;64.31;101363.59;5103253;27;20479;-68
2023/10/11 06:36:53;;;;;;;23.75;8.18;;;;;;;24.75;57.08;101356.69;5098813;28;20042;-68
2023/10/11 06:42:14;;;;;;;22.63;8.75;;;;;;;24.19;60.38;101360.00;5123540;27;20027;-68
2023/10/11 06:44:47;;;;;;;21.05;10.20;;;;;;;23.85;60.25;101353.94;5130183;27;20389;-68
2023/10/11 06:47:13;;;;;;;27.23;8.88;;;;;;;23.13;63.94;101353.50;5111441;28;20031;-68
2023/10/11 06:49:44;;;;;;;19.45;8.05;;;;;;;23.60;62.80;101337.59;5093316;27;20032;-69
2023/10/11 06:52:22;;;;;;;24.15;7.75;;;;;;;22.98;64.34;101341.84;5110694;27;20029;-68
2023/10/11 06:55:07;;;;;;;26.45;9.10;;;;;;;23.59;62.63;101346.56;5112357;27;20064;-68
2023/10/11 06:57:38;;;;;;;23.27;8.40;;;;;;;23.58;63.25;101347.53;5132235;27;20079;-68
2023/10/11 07:00:20;;;;;;;25.60;9.25;;;;;;;22.94;66.11;101342.94;5131238;27;20054;-68
2023/10/11 07:02:47;;;;;;;22.07;7.67;;;;;;;24.69;59.11;101346.41;5112714;27;20043;-68
2023/10/11 07:05:20;;;;;;;24.92;8.77;;;;;;;24.14;59.50;101362.09;5126173;27;20111;-68
2023/10/11 07:07:49;;;;;;;23.42;8.43;;;;;;;23.93;61.99;101364.19;5110912;27;20039;-69
2023/10/11 07:10:29;;;;;;;23.35;7.60;;;;;;;23.60;62.96;101358.94;5092653;28;20071;-68
2023/10/11 07:13:05;;;;;;;15.95;8.30;;;;;;;24.32;59.64;101369.97;5110841;28;20031;-69
2023/10/11 07:15:47;;;;;;;20.65;8.40;;;;;;;23.23;63.96;101369.00;5096198;27;20033;-69
2023/10/11 07:18:22;;;;;;;28.27;8.98;;;;;;;24.35;60.47;101375.97;5106505;27;20027;-68
2023/10/11 07:20:47;;;;;;;20.25;8.50;;;;;;;23.13;64.62;101377.50;5122930;27;20035;-69
2023/10/11 07:23:20;;;;;;;32.60;8.63;;;;;;;23.80;62.61;101385.38;5130701;27;20458;-68
2023/10/11 07:26:56;;;;;;;19.02;7.80;;;;;;;24.04;62.36;101382.25;5111433;27;20065;-69
2023/10/11 07:28:52;;;;;;;28.95;9.02;;;;;;;23.76;63.86;101386.50;5114107;27;20049;-68
2023/10/11 07:31:32;;;;;;;24.10;8.50;;;;;;;24.42;61.06;101379.13;5111863;27;20483;-68
2023/10/11 07:34:06;;;;;;;25.63;9.50;;;;;;;24.12;62.37;101385.34;5111569;27;20505;-68
2023/10/11 07:36:37;;;;;;;21.92;8.00;;;;;;;24.21;61.38;101382.13;5116447;27;20515;-68
2023/10/11 07:39:14;;;;;;;21.15;8.55;;;;;;;24.14;60.72;101383.44;5108647;27;20699;-68
2023/10/11 07:41:44;;;;;;;23.83;8.07;;;;;;;24.05;62.72;101394.66;5103508;27;20460;-68
2023/10/11 07:44:10;;;;;;;20.92;8.25;;;;;;;22.98;67.24;101376.50;5111947;27;20026;-68
2023/10/11 07:46:37;;;;;;;17.35;7.20;;;;;;;23.90;65.39;101390.22;5122823;27;20035;-68
2023/10/11 07:49:04;;;;;;;20.90;7.88;;;;;;;24.55;62.54;101377.44;5092396;28;20038;-69
2023/10/11 07:51:34;;;;;;;27.33;7.55;;;;;;;24.59;62.02;101382.59;5092287;28;20167;-68
2023/10/11 07:54:06;;;;;;;21.85;7.65;;;;;;;24.85;61.02;101379.25;5099943;28;20037;-69
2023/10/11 07:56:35;;;;;;;18.60;7.28;;;;;;;24.20;62.46;101383.06;5128715;27;20023;-68
2023/10/11 07:59:08;;;;;;;22.25;7.82;;;;;;;25.28;59.38;101374.81;5110779;28;20456;-68
2023/10/11 08:01:43;;;;;;;24.05;9.15;;;;;;;24.84;59.46;101392.66;5119820;27;20062;-68
2023/10/11 08:04:12;;;;;;;22.15;7.38;;;;;;;24.28;61.19;101395.13;5119206;28;20034;-68
2023/10/11 08:06:40;;;;;;;23.35;7.80;;;;;;;24.07;64.06;101407.91;5106294;28;20482;-68
2023/10/11 08:09:06;;;;;;;25.92;8.57;;;;;;;24.29;63.84;101402.19;5100391;28;20535;-68
2023/10/11 08:14:21;;;;;;;18.23;7.32;;;;;;;24.60;63.45;101395.03;5112373;28;20059;-69
2023/10/11 08:16:49;;;;;;;21.35;7.93;;;;;;;24.88;61.17;101416.47;5096667;28;20027;-68
2023/10/11 08:19:14;;;;;;;25.58;8.40;;;;;;;25.20;59.56;101400.22;5110990;28;20035;-68
2023/10/11 08:21:40;;;;;;;21.10;7.63;;;;;;;23.44;68.08;101409.63;5130534;28;20072;-68
2023/10/11 08:24:15;;;;;;;26.98;7.78;;;;;;;23.65;67.67;101415.59;5110475;28;20019;-68
2023/10/11 08:26:42;;;;;;;23.42;7.65;;;;;;;24.46;64.77;101404.72;5103418;28;20468;-68
2023/10/11 08:29:27;;;;;;;24.65;6.55;;;;;;;23.86;65.77;101400.16;5111477;28;20059;-69
2023/10/11 08:31:56;;;;;;;23.33;6.53;;;;;;;24.44;62.12;101401.28;5091604;28;20034;-68
2023/10/11 08:34:21;;;;;;;15.43;5.13;;;;;;;23.73;67.11;101413.34;5093405;28;20103;-68
2023/10/11 08:36:48;;;;;;;12.88;5.18;;;;;;;24.15;64.43;101405.66;5114629;28;20024;-68
2023/10/11 08:39:14;;;;;;;15.75;5.15;;;;;;;25.16;59.66;101393.34;5114788;27;20023;-68
2023/10/11 08:41:43;;;;;;;17.38;4.70;;;;;;;23.94;62.28;101421.13;5095369;28;20058;-68
2023/10/11 08:44:18;;;;;;;12.88;4.22;;;;;;;23.64;65.79;101416.53;5095589;28;20032;-68
2023/10/11 08:46:48;;;;;;;13.55;4.57;;;;;;;24.63;61.52;101400.19;5112590;28;20051;-68
2023/10/11 08:49:17;;;;;;;11.15;4.20;;;;;;;24.97;59.63;101392.78;5102152;27;20027;-68
2023/10/11 08:51:43;;;;;;;8.77;4.07;;;;;;;25.02;60.73;101393.38;5099796;28;20038;-68
2023/10/11 08:54:16;;;;;;;12.25;4.30;;;;;;;25.15;59.53;101390.78;5112624;28;20027;-68
2023/10/11 08:56:54;;;;;;;10.90;4.40;;;;;;;24.63;60.59;101386.84;5095215;28;20020;-68
2023/10/11 08:59:24;;;;;;;12.98;3.70;;;;;;;24.08;62.79;101397.16;5115907;27;20028;-68
2023/10/11 09:01:52;;;;;;;5.88;3.28;;;;;;;24.55;60.22;101388.13;5102530;28;20102;-69
2023/10/11 09:04:18;;;;;;;5.03;2.72;;;;;;;24.33;61.13;101401.03;5099653;28;20059;-68
2023/10/11 09:06:44;;;;;;;7.68;2.85;;;;;;;25.88;56.43;101390.56;5112215;28;20062;-68
2023/10/11 09:09:32;;;;;;;12.25;4.43;;;;;;;25.23;57.44;101392.00;5110885;28;20031;-68
2023/10/11 09:11:58;;;;;;;11.98;4.25;;;;;;;25.24;58.82;101383.03;5101903;28;20081;-68
2023/10/11 09:14:24;;;;;;;10.13;3.55;;;;;;;24.36;61.65;101403.56;5116000;27;20106;-68
2023/10/11 09:16:51;;;;;;;7.88;2.75;;;;;;;24.24;60.78;101402.47;5104334;28;20020;-68
2023/10/11 09:19:19;;;;;;;9.90;4.00;;;;;;;24.41;61.44;101396.09;5105368;28;20092;-68
2023/10/11 09:22:01;;;;;;;9.25;3.83;;;;;;;25.60;57.34;101412.06;5119912;27;20040;-69
2023/10/11 09:24:29;;;;;;;9.07;3.42;;;;;;;25.30;57.33;101399.66;5097497;28;20174;-68
2023/10/11 09:29:51;;;;;;;9.45;3.47;;;;;;;25.65;57.15;101420.63;5091839;28;20035;-68
2023/10/11 09:32:27;;;;;;;13.93;4.22;;;;;;;26.05;55.34;101420.75;5096302;28;20047;-68
2023/10/11 09:34:54;;;;;;;12.48;2.80;;;;;;;24.75;59.03;101431.53;5110689;28;20039;-68
2023/10/11 09:37:20;;;;;;;9.25;3.70;;;;;;;26.37;54.32;101433.81;5109361;28;20020;-68
2023/10/11 09:39:47;;;;;;;12.63;4.45;;;;;;;24.86;58.32;101433.56;5111147;28;20578;-68
2023/10/11 09:42:14;;;;;;;13.13;3.50;;;;;;;25.38;57.76;101440.19;5112153;28;20036;-68
2023/10/11 09:44:43;;;;;;;16.67;4.00;;;;;;;23.80;63.05;101449.41;5107050;28;20035;-68
2023/10/11 09:47:16;;;;;;;12.77;3.50;;;;;;;24.66;59.69;101437.41;5106328;28;20388;-69
2023/10/11 09:49:41;;;;;;;;;;;;;;;24.78;59.10;101427.81;5092537;28;20093;-69
2023/10/11 09:52:11;;;;;;;10.75;3.80;;;;;;;25.15;58.19;101423.72;5091973;28;19911;-68
2023/10/11 09:54:38;;;;;;;8.38;3.42;;;;;;;26.07;54.49;101427.72;5101785;28;20387;-69
2023/10/11 09:57:38;;;;;;;10.05;3.72;;;;;;;26.06;54.03;101427.81;5108315;28;20119;-68
2023/10/11 10:00:14;;;;;;;16.77;3.63;;;;;;;25.97;56.01;101420.38;5100219;28;20046;-68
2023/10/11 10:02:44;;;;;;;8.05;2.97;;;;;;;24.88;57.34;101419.16;5091794;28;20036;-68
2023/10/11 10:05:10;;;;;;;10.45;3.80;;;;;;;25.51;56.28;101430.44;5089043;28;20028;-68
2023/10/11 10:10:06;;;;;;;9.93;3.78;;;;;;;26.17;54.48;101422.63;5094018;28;20035;-68
2023/10/11 10:12:32;;;;;;;14.48;3.47;;;;;;;25.80;54.71;101427.69;5090636;28;20084;-68
2023/10/11 10:15:36;;;;;;;6.75;3.28;;;;;;;25.91;54.96;101427.84;5107003;27;20070;-67
2023/10/11 10:18:12;;;;;;;8.02;2.50;;;;;;;26.07;54.24;101437.56;5109242;28;20498;-68
2023/10/11 10:20:44;;;;;;;9.35;2.67;;;;;;;25.95;53.75;101433.84;5110608;28;20042;-67
2023/10/11 10:23:15;;;;;;;5.80;2.45;;;;;;;27.14;51.52;101423.16;5098238;28;20059;-68
2023/10/11 10:25:48;;;;;;;4.53;1.85;;;;;;;27.24;50.49;101429.59;5111514;28;20035;-68
2023/10/11 10:28:32;;;;;;;6.57;1.88;;;;;;;27.73;49.73;101418.97;5114630;27;20121;-67
2023/10/11 10:31:13;;;;;;;6.30;1.90;;;;;;;26.61;51.87;101409.81;5096274;28;20039;-67
2023/10/11 10:33:40;;;;;;;8.45;2.22;;;;;;;26.90;51.21;101415.88;5100708;28;20019;-71
2023/10/11 10:36:21;;;;;;;6.25;2.10;;;;;;;27.40;51.22;101407.06;5105435;28;20063;-70
2023/10/11 10:41:31;;;;;;;4.97;2.00;;;;;;;27.99;48.73;101392.03;5109299;28;20043;-70
2023/10/11 10:44:06;;;;;;;6.28;2.83;;;;;;;27.73;49.12;101381.38;5097515;28;20032;-71
2023/10/11 10:46:32;;;;;;;6.30;1.83;;;;;;;27.59;49.76;101375.22;5098997;28;20027;-70
2023/10/11 10:48:58;;;;;;;5.13;2.15;;;;;;;27.56;49.59;101383.50;5108526;28;20106;-70
2023/10/11 10:51:27;;;;;;;9.07;2.20;;;;;;;27.32;50.81;101382.56;5109573;28;20735;-70
2023/10/11 10:53:53;;;;;;;3.10;2.10;;;;;;;28.74;47.45;101382.72;5090580;28;20032;-70
2023/10/11 10:56:26;;;;;;;8.32;2.95;;;;;;;28.69;47.42;101384.94;5087911;28;20090;-70
2023/10/11 10:59:12;;;;;;;4.82;2.20;;;;;;;29.19;46.90;101381.88;5089315;28;20028;-71
2023/10/11 11:01:44;;;;;;;2.92;2.13;;;;;;;28.55;48.13;101384.16;5088323;28;20040;-70
2023/10/11 11:04:11;;;;;;;5.97;2.42;;;;;;;27.67;49.43;101381.81;5088809;28;20400;-71
2023/10/11 11:06:48;;;;;;;6.15;2.08;;;;;;;26.57;51.77;101366.31;5108753;28;20387;-71
2023/10/11 11:09:18;;;;;;;7.07;1.63;;;;;;;26.33;52.81;101368.00;5109714;28;20032;-71
2023/10/11 11:11:44;;;;;;;5.45;2.10;;;;;;;26.98;51.97;101374.25;5108176;28;20019;-70
2023/10/11 11:14:13;;;;;;;6.18;2.53;;;;;;;26.76;51.60;101370.41;5110480;28;20032;-71
2023/10/11 11:16:39;;;;;;;6.60;1.80;;;;;;;27.45;50.40;101361.97;5124240;27;20399;-71
2023/10/11 11:19:25;;;;;;;10.70;1.98;;;;;;;26.11;54.00;101358.72;5088470;28;20047;-70
2023/10/11 11:22:11;;;;;;;6.38;1.75;;;;;;;27.04;52.07;101347.00;5088629;28;20031;-69
2023/10/11 11:24:36;;;;;;;5.53;1.80;;;;;;;27.34;50.77;101359.16;5105904;28;20031;-70
2023/10/11 11:27:06;;;;;;;4.22;1.90;;;;;;;26.83;52.19;101360.97;5089701;28;20020;-69
2023/10/11 11:29:33;;;;;;;5.93;1.75;;;;;;;27.25;50.87;101361.53;5089270;28;20020;-69
2023/10/11 11:32:14;;;;;;;4.22;1.45;;;;;;;27.17;50.90;101353.19;5105238;28;20035;-70
2023/10/11 11:35:00;;;;;;;6.38;2.42;;;;;;;27.30;50.77;101352.28;5108511;28;20115;-69
2023/10/11 11:37:29;;;;;;;4.25;2.00;;;;;;;28.02;49.88;101367.63;5108547;28;20544;-69
2023/10/11 11:40:17;;;;;;;4.15;1.77;;;;;;;28.03;49.92;101366.66;5108515;28;20026;-69
2023/10/11 11:42:47;;;;;;;5.28;2.08;;;;;;;27.34;50.35;101362.72;5107679;28;20473;-69
2023/10/11 11:45:14;;;;;;;3.45;1.58;;;;;;;26.47;51.97;101353.66;5104821;28;20435;-70
2023/10/11 11:47:40;;;;;;;6.60;2.03;;;;;;;28.03;49.00;101351.41;5088564;28;20081;-71
2023/10/11 11:50:18;;;;;;;11.60;2.25;;;;;;;27.54;49.81;101353.22;5088160;28;20028;-71
2023/10/11 11:52:43;;;;;;;6.03;2.20;;;;;;;26.51;52.63;101356.00;5088409;28;20383;-69
2023/10/11 11:55:09;;;;;;;5.22;2.00;;;;;;;26.45;52.79;101356.44;5094973;28;20024;-69
2023/10/11 11:57:35;;;;;;;7.07;2.20;;;;;;;27.26;50.93;101357.88;5087622;28;20633;-71
2023/10/11 12:00:19;;;;;;;10.18;3.05;;;;;;;27.70;50.26;101361.00;5087893;28;20055;-70
2023/10/11 12:02:45;;;;;;;6.88;2.15;;;;;;;26.84;51.64;101356.47;5088179;28;20081;-70
2023/10/11 12:05:11;;;;;;;6.70;1.65;;;;;;;26.52;52.72;101359.56;5087066;28;20024;-71
2023/10/11 12:07:36;;;;;;;6.70;2.53;;;;;;;26.73;52.90;101346.50;5090984;28;20027;-71
2023/10/11 12:10:10;;;;;;;4.38;1.95;;;;;;;26.57;53.39;101347.53;5094720;28;20093;-71
2023/10/11 12:12:36;;;;;;;6.78;2.00;;;;;;;26.40;54.21;101353.22;5111265;28;20132;-71
2023/10/11 12:15:03;;;;;;;8.70;2.22;;;;;;;27.07;51.89;101352.16;5113870;28;20539;-71
2023/10/11 12:17:29;;;;;;;14.48;3.50;;;;;;;26.74;53.24;101350.91;5107607;27;20095;-71
2023/10/11 12:19:54;;;;;;;5.45;2.20;;;;;;;26.65;52.54;101346.13;5093996;28;20107;-71
2023/10/11 12:22:22;;;;;;;4.35;2.08;;;;;;;25.61;55.11;101354.88;5095114;28;20035;-71
2023/10/11 12:24:48;;;;;;;6.97;2.72;;;;;;;27.31;51.57;101351.31;5103797;28;20027;-70
2023/10/11 12:27:13;;;;;;;10.27;2.70;;;;;;;25.97;55.10;101356.09;5094984;28;20031;-71
2023/10/11 12:29:39;;;;;;;5.18;2.38;;;;;;;26.84;51.84;101357.31;5102403;28;20440;-70
2023/10/11 12:32:06;;;;;;;8.52;3.05;;;;;;;26.83;52.85;101352.94;5116701;27;20106;-70
2023/10/11 12:34:32;;;;;;;5.20;2.38;;;;;;;27.57;51.59;101350.31;5106046;27;20016;-71